Time;durP1;ratioP1;P1;durP2;ratioP2;P2;SDS_P1;SDS_P2;PMS_P1;PMS_P2;Temp;Humidity;BMP_temperature;BMP_pressure;BME280_temperature;BME280_humidity;BME280_pressure;Samples;Min_cycle;Max_cycle;Signal;HPM_P1;HPM_P2
2021/05/20 00:00:51;;;;;;;1.30;1.20;;;;;;;11.06;71.66;95920.75;4974198;28;20231;-87
2021/05/20 00:03:17;;;;;;;1.93;1.00;;;;;;;11.10;71.34;95921.22;4974088;28;20226;-87
2021/05/20 00:05:43;;;;;;;2.43;1.40;;;;;;;11.10;71.58;95919.44;4974290;28;20706;-85
2021/05/20 00:08:09;;;;;;;0.93;0.93;;;;;;;11.06;71.37;95920.75;4974610;28;20204;-86
2021/05/20 00:10:36;;;;;;;1.53;1.27;;;;;;;11.06;71.51;95925.91;4974031;28;20270;-87
2021/05/20 00:13:02;;;;;;;2.20;1.10;;;;;;;11.01;71.99;95925.59;4973722;28;20779;-87
2021/05/20 00:15:29;;;;;;;1.30;1.20;;;;;;;11.01;72.24;95925.59;4973629;28;20211;-86
2021/05/20 00:17:55;;;;;;;1.63;1.10;;;;;;;11.06;72.15;95928.47;4974545;28;20216;-86
2021/05/20 00:20:21;;;;;;;1.50;1.10;;;;;;;11.05;72.12;95927.69;4973796;28;20224;-86
2021/05/20 00:22:47;;;;;;;0.97;0.97;;;;;;;11.04;71.97;95927.84;4974163;28;20231;-85
2021/05/20 00:25:13;;;;;;;1.73;1.33;;;;;;;11.07;71.91;95928.31;4973926;28;20240;-86
2021/05/20 00:27:39;;;;;;;1.13;1.03;;;;;;;11.11;72.00;95933.13;4974279;28;20196;-86
2021/05/20 00:30:10;;;;;;;1.40;1.30;;;;;;;11.06;72.32;95931.88;4974053;28;20207;-86
2021/05/20 00:32:36;;;;;;;1.17;1.07;;;;;;;11.11;71.69;95939.09;4973320;28;20204;-87
2021/05/20 00:35:02;;;;;;;2.37;1.20;;;;;;;11.06;71.79;95941.38;4973871;28;20861;-88
2021/05/20 00:37:28;;;;;;;3.53;1.30;;;;;;;11.07;72.08;95948.13;4974100;28;20200;-84
2021/05/20 00:39:54;;;;;;;3.87;1.00;;;;;;;11.11;72.10;95940.88;4973977;28;20215;-85
2021/05/20 00:42:20;;;;;;;1.30;1.20;;;;;;;11.14;72.22;95940.53;4972680;28;20243;-84
2021/05/20 00:44:54;;;;;;;1.10;1.00;;;;;;;11.19;72.23;95941.59;4974149;28;20204;-86
2021/05/20 00:47:22;;;;;;;1.63;1.10;;;;;;;11.13;72.39;95937.16;4973063;28;20224;-84
2021/05/20 00:49:48;;;;;;;1.33;1.00;;;;;;;11.14;72.22;95937.94;4973526;28;20200;-84
2021/05/20 00:52:15;;;;;;;1.70;1.07;;;;;;;11.14;72.90;95940.53;4972548;28;20224;-86
2021/05/20 00:54:41;;;;;;;2.17;1.30;;;;;;;11.16;72.57;95939.34;4975243;28;20235;-86
2021/05/20 00:57:08;;;;;;;1.30;1.20;;;;;;;11.12;73.22;95945.84;4977060;28;20211;-87
2021/05/20 00:59:34;;;;;;;1.40;1.30;;;;;;;11.15;73.41;95947.28;4977622;28;20214;-85
2021/05/20 01:02:00;;;;;;;2.37;1.30;;;;;;;11.15;74.06;95942.94;4976817;28;20232;-87
2021/05/20 01:04:27;;;;;;;1.53;1.37;;;;;;;11.14;74.00;95945.69;4977415;28;20200;-85
2021/05/20 01:06:53;;;;;;;1.90;1.53;;;;;;;11.15;73.71;95942.13;4976331;28;20200;-86
2021/05/20 01:09:19;;;;;;;1.30;1.10;;;;;;;11.08;75.21;95942.00;4976584;28;20204;-87
2021/05/20 01:11:45;;;;;;;1.30;1.20;;;;;;;11.08;74.08;95942.00;4976499;28;20807;-86
2021/05/20 01:14:12;;;;;;;3.60;1.50;;;;;;;11.03;75.07;95946.84;4976752;28;20208;-86
2021/05/20 01:16:38;;;;;;;1.47;1.30;;;;;;;11.04;74.85;95945.88;4957496;29;20209;-87
2021/05/20 01:19:04;;;;;;;2.17;1.40;;;;;;;11.12;74.36;95939.91;4957667;29;20197;-87
2021/05/20 01:21:32;;;;;;;2.37;1.47;;;;;;;11.02;75.67;95946.06;4975237;28;20274;-87
2021/05/20 01:23:58;;;;;;;1.50;1.40;;;;;;;10.98;75.84;95947.34;4976497;28;20263;-86
2021/05/20 01:26:24;;;;;;;1.73;1.20;;;;;;;11.02;75.80;95951.22;4975494;28;20270;-87
2021/05/20 01:28:50;;;;;;;1.67;1.37;;;;;;;11.03;75.54;95947.66;4976712;28;20204;-84
2021/05/20 01:31:16;;;;;;;2.33;1.30;;;;;;;11.08;75.62;95947.16;4976095;28;20216;-87
2021/05/20 01:33:42;;;;;;;1.63;1.30;;;;;;;11.09;76.27;95943.63;4975471;28;20254;-85
2021/05/20 01:36:08;;;;;;;1.53;1.17;;;;;;;11.11;75.92;95949.41;4975826;28;20200;-84
2021/05/20 01:38:44;;;;;;;2.60;1.20;;;;;;;11.08;75.97;95945.38;4975713;28;20208;-86
2021/05/20 01:41:12;;;;;;;2.47;1.30;;;;;;;11.10;75.34;95949.56;4975278;28;20254;-87
2021/05/20 01:43:40;;;;;;;1.80;1.30;;;;;;;11.07;75.83;95951.50;4975504;28;20223;-85
2021/05/20 01:46:07;;;;;;;1.47;1.37;;;;;;;10.99;75.55;95948.97;4975713;28;20293;-85
2021/05/20 01:48:35;;;;;;;1.30;1.10;;;;;;;10.93;76.38;95951.44;4975965;28;20208;-85
2021/05/20 01:51:04;;;;;;;3.83;1.30;;;;;;;11.00;76.54;95950.56;4974648;28;20252;-85
2021/05/20 01:53:30;;;;;;;1.30;1.20;;;;;;;10.99;75.55;95953.31;4975306;28;20203;-83
2021/05/20 01:55:56;;;;;;;1.67;1.50;;;;;;;11.07;75.45;95951.50;4975539;28;20234;-84
2021/05/20 01:58:23;;;;;;;1.40;1.20;;;;;;;11.08;74.93;95953.13;4975248;28;20204;-87
2021/05/20 02:00:49;;;;;;;1.33;1.00;;;;;;;11.12;74.54;95961.31;4976569;28;20274;-87
2021/05/20 02:03:15;;;;;;;1.40;0.97;;;;;;;11.09;74.31;95959.06;4977082;28;20219;-86
2021/05/20 02:05:40;;;;;;;1.30;1.20;;;;;;;11.04;74.56;95959.56;4975079;28;20212;-85
2021/05/20 02:08:06;;;;;;;1.10;0.97;;;;;;;11.10;74.38;95962.44;4975485;28;20204;-84
2021/05/20 02:10:32;;;;;;;1.60;1.00;;;;;;;11.08;74.51;95963.41;4975828;28;20230;-85
2021/05/20 02:12:59;;;;;;;1.10;1.00;;;;;;;11.07;74.85;95959.25;4975436;28;20216;-87
2021/05/20 02:15:25;;;;;;;1.07;1.00;;;;;;;11.06;73.94;95959.41;4975357;28;20217;-86
2021/05/20 02:17:53;;;;;;;1.00;1.00;;;;;;;11.09;74.21;95956.50;4974831;28;20294;-86
2021/05/20 02:20:19;;;;;;;1.20;1.10;;;;;;;11.08;73.95;95953.13;4974536;28;20315;-84
2021/05/20 02:22:45;;;;;;;0.80;0.80;;;;;;;11.15;73.43;95957.59;4974489;28;20237;-86
2021/05/20 02:25:12;;;;;;;1.27;0.90;;;;;;;11.08;73.63;95950.53;4974817;28;21405;-84
2021/05/20 02:27:38;;;;;;;1.20;0.87;;;;;;;11.12;73.63;95957.94;4975147;28;20209;-87
2021/05/20 02:30:06;;;;;;;0.80;0.80;;;;;;;11.06;73.35;95943.94;4974552;28;20566;-86
2021/05/20 02:32:32;;;;;;;0.83;0.83;;;;;;;11.05;73.11;95952.66;4974539;28;20204;-87
2021/05/20 02:34:58;;;;;;;0.87;0.80;;;;;;;11.06;73.49;95955.06;4974423;28;20200;-87
2021/05/20 02:37:24;;;;;;;0.73;0.73;;;;;;;11.06;73.33;95955.06;4974599;28;20214;-86
2021/05/20 02:39:50;;;;;;;1.47;0.90;;;;;;;11.07;73.23;95954.09;4974875;28;20210;-86
2021/05/20 02:42:16;;;;;;;1.00;0.90;;;;;;;11.04;74.06;95954.41;4974492;28;20282;-84
2021/05/20 02:44:42;;;;;;;1.10;1.00;;;;;;;11.06;73.18;95956.84;4974534;28;20200;-85
2021/05/20 02:47:09;;;;;;;2.40;1.07;;;;;;;11.05;73.09;95953.44;4974718;28;20263;-84
2021/05/20 02:49:35;;;;;;;0.97;0.90;;;;;;;11.05;73.04;95955.22;4974601;28;20263;-84
2021/05/20 02:52:01;;;;;;;0.80;0.80;;;;;;;11.01;72.94;95959.91;4974360;28;20307;-84
2021/05/20 02:54:27;;;;;;;1.07;0.83;;;;;;;10.99;73.03;95956.69;4974184;28;20327;-83
2021/05/20 02:56:53;;;;;;;1.53;1.07;;;;;;;10.96;73.44;95951.91;4974181;28;20212;-83
2021/05/20 02:59:19;;;;;;;2.13;1.87;;;;;;;10.96;72.87;95951.91;4974082;28;20688;-87
2021/05/20 03:01:46;;;;;;;1.33;0.90;;;;;;;10.94;73.26;95953.03;4974030;28;20762;-85
2021/05/20 03:04:14;;;;;;;1.00;0.90;;;;;;;10.96;72.73;95953.69;4973877;28;20254;-87
2021/05/20 03:06:41;;;;;;;0.90;0.80;;;;;;;10.98;72.56;95959.44;4974002;28;20208;-83
2021/05/20 03:09:09;;;;;;;2.10;1.20;;;;;;;10.98;72.52;95954.28;4973866;28;20308;-86
2021/05/20 03:11:35;;;;;;;0.80;0.80;;;;;;;10.96;72.72;95958.84;4973804;28;20231;-84
2021/05/20 03:14:01;;;;;;;0.80;0.80;;;;;;;10.93;72.50;95954.81;4973776;28;20204;-87
2021/05/20 03:16:27;;;;;;;0.80;0.80;;;;;;;10.87;72.75;95958.06;4974071;28;20196;-83
2021/05/20 03:18:54;;;;;;;0.80;0.80;;;;;;;10.88;72.89;95953.72;4973424;28;20207;-84
2021/05/20 03:21:21;;;;;;;0.90;0.90;;;;;;;10.88;72.95;95962.25;4974154;28;20220;-84
2021/05/20 03:23:47;;;;;;;1.00;0.90;;;;;;;10.91;72.51;95964.50;4973183;28;20745;-85
2021/05/20 03:26:13;;;;;;;0.70;0.70;;;;;;;10.88;72.29;95964.81;4973551;28;20267;-84
2021/05/20 03:28:39;;;;;;;2.20;0.87;;;;;;;10.85;72.49;95960.00;4972932;28;20287;-84
2021/05/20 03:31:05;;;;;;;1.10;1.00;;;;;;;10.87;72.64;95962.41;4973819;28;20311;-85
2021/05/20 03:33:31;;;;;;;1.10;0.97;;;;;;;10.85;72.78;95959.19;4973314;28;20319;-86
2021/05/20 03:35:57;;;;;;;0.80;0.80;;;;;;;10.86;72.82;95956.47;4973550;28;20864;-84
2021/05/20 03:38:24;;;;;;;3.00;1.23;;;;;;;10.82;72.38;95965.47;4973760;28;20224;-86
2021/05/20 03:40:50;;;;;;;2.07;0.83;;;;;;;10.87;72.32;95957.25;4973554;28;20227;-86
2021/05/20 03:43:16;;;;;;;1.90;1.07;;;;;;;10.79;73.25;95959.84;4972659;28;20224;-84
2021/05/20 03:45:42;;;;;;;2.00;0.80;;;;;;;10.73;73.89;95958.78;4973727;28;20218;-86
2021/05/20 03:48:08;;;;;;;1.20;1.00;;;;;;;10.69;74.57;95960.88;4973573;28;20604;-84
2021/05/20 03:50:34;;;;;;;2.00;0.80;;;;;;;10.64;74.08;95962.34;4973371;28;20228;-85
2021/05/20 03:53:01;;;;;;;2.27;0.90;;;;;;;10.56;74.93;95952.91;4973381;28;20208;-86
2021/05/20 03:55:28;;;;;;;0.80;0.80;;;;;;;10.57;73.92;95967.38;4973718;28;20756;-87
2021/05/20 03:57:54;;;;;;;0.90;0.90;;;;;;;10.66;73.84;95968.13;4973189;28;20196;-86
2021/05/20 04:00:20;;;;;;;0.87;0.80;;;;;;;10.76;73.65;95970.53;4972906;28;20294;-87
2021/05/20 04:02:48;;;;;;;0.90;0.80;;;;;;;10.73;73.44;95969.09;4972285;28;20251;-86
2021/05/20 04:05:14;;;;;;;0.80;0.80;;;;;;;10.66;73.62;95973.28;4973518;28;20203;-87
2021/05/20 04:07:41;;;;;;;1.53;0.90;;;;;;;10.79;73.44;95970.16;4973323;28;20228;-85
2021/05/20 04:10:08;;;;;;;1.80;0.93;;;;;;;10.81;73.67;95969.03;4973164;28;20196;-83
2021/05/20 04:12:38;;;;;;;0.80;0.80;;;;;;;10.84;74.19;95978.19;4973270;28;20211;-85
2021/05/20 04:15:05;;;;;;;1.13;0.80;;;;;;;10.80;74.32;95975.16;4973546;28;20668;-84
2021/05/20 04:17:34;;;;;;;1.53;1.00;;;;;;;10.87;73.74;95972.72;4973484;28;20208;-87
2021/05/20 04:20:00;;;;;;;2.20;1.53;;;;;;;10.94;74.03;95984.75;4973376;28;20283;-87
2021/05/20 04:22:31;;;;;;;1.57;1.00;;;;;;;10.89;74.28;95983.66;4977371;28;20232;-86
2021/05/20 04:24:57;;;;;;;1.13;1.00;;;;;;;10.86;74.47;95984.78;4973754;28;20223;-84
2021/05/20 04:27:23;;;;;;;0.80;0.80;;;;;;;10.76;75.16;95986.78;4973745;28;20236;-84
2021/05/20 04:29:50;;;;;;;4.13;1.20;;;;;;;10.80;75.20;95989.81;4974603;28;20211;-84
2021/05/20 04:32:16;;;;;;;1.50;1.30;;;;;;;10.76;75.18;95988.56;4976097;28;20216;-86
2021/05/20 04:34:43;;;;;;;1.33;0.90;;;;;;;10.69;75.62;95998.72;4977158;28;20706;-86
2021/05/20 04:37:12;;;;;;;1.20;1.10;;;;;;;10.70;76.24;95995.97;4977756;28;20200;-84
2021/05/20 04:39:38;;;;;;;1.17;1.00;;;;;;;10.78;75.73;96000.28;4977385;28;20207;-87
2021/05/20 04:42:05;;;;;;;1.57;1.30;;;;;;;10.93;75.13;96002.97;4976315;28;20783;-87
2021/05/20 04:44:31;;;;;;;3.47;1.30;;;;;;;10.95;75.40;96008.75;4976972;28;20206;-87
2021/05/20 04:46:57;;;;;;;1.30;1.10;;;;;;;10.95;74.67;96006.97;4976662;28;20208;-86
2021/05/20 04:49:26;;;;;;;4.90;4.00;;;;;;;10.90;75.32;96008.44;4976421;28;20200;-86
2021/05/20 04:51:52;;;;;;;3.30;2.90;;;;;;;10.87;75.43;96011.34;4977321;28;20265;-86
2021/05/20 04:54:21;;;;;;;3.43;1.30;;;;;;;10.87;75.42;96011.34;4964077;28;20208;-85
2021/05/20 04:56:47;;;;;;;1.40;1.30;;;;;;;10.85;74.97;96015.88;4969709;28;20208;-87
2021/05/20 04:59:13;;;;;;;1.47;1.30;;;;;;;10.82;75.58;96017.00;4975394;28;20580;-86
2021/05/20 05:01:39;;;;;;;1.50;1.10;;;;;;;10.91;75.44;96013.44;4976493;28;20220;-86
2021/05/20 05:04:06;;;;;;;1.40;1.30;;;;;;;10.95;74.91;96021.63;4977972;28;20318;-87
2021/05/20 05:06:34;;;;;;;1.60;1.50;;;;;;;10.93;74.81;96018.41;4973037;28;20219;-84
2021/05/20 05:09:00;;;;;;;2.13;1.77;;;;;;;10.89;74.82;96019.72;4976379;28;20232;-85
2021/05/20 05:11:27;;;;;;;1.43;1.30;;;;;;;10.85;74.71;96023.59;4979567;28;20711;-84
2021/05/20 05:13:53;;;;;;;2.57;1.60;;;;;;;10.88;74.77;96026.66;4980919;28;20714;-87
2021/05/20 05:16:25;;;;;;;4.50;1.70;;;;;;;10.95;75.06;96032.75;4979856;28;20200;-85
2021/05/20 05:19:02;;;;;;;1.40;1.30;;;;;;;10.96;74.33;96033.53;4978276;28;20204;-83
2021/05/20 05:21:29;;;;;;;1.43;1.30;;;;;;;10.98;74.23;96031.59;4975261;28;20314;-83
2021/05/20 05:23:55;;;;;;;1.70;1.60;;;;;;;11.00;74.54;96045.91;4977580;28;20231;-85
2021/05/20 05:26:22;;;;;;;1.57;1.40;;;;;;;10.85;74.40;96044.19;4976507;28;20239;-86
2021/05/20 05:28:48;;;;;;;1.50;1.40;;;;;;;10.94;74.51;96045.78;4978191;28;20586;-86
2021/05/20 05:31:18;;;;;;;3.47;1.40;;;;;;;10.91;74.18;96052.06;4983996;23;20789;-85
2021/05/20 05:33:44;;;;;;;2.00;1.40;;;;;;;11.03;73.81;96053.31;4978283;28;20200;-86
2021/05/20 05:36:10;;;;;;;1.40;1.30;;;;;;;11.12;73.37;96048.94;4978288;28;20217;-86
2021/05/20 05:38:37;;;;;;;1.60;1.50;;;;;;;11.15;73.29;96047.81;4979057;28;20204;-84
2021/05/20 05:41:04;;;;;;;1.67;1.40;;;;;;;11.07;73.27;96057.16;4977022;28;20284;-83
2021/05/20 05:43:30;;;;;;;2.77;1.27;;;;;;;11.09;73.70;96057.00;4979232;28;20224;-85
2021/05/20 05:45:56;;;;;;;1.53;1.33;;;;;;;11.18;73.57;96065.47;4978195;28;20649;-86
2021/05/20 05:48:25;;;;;;;2.27;1.50;;;;;;;11.22;73.76;96064.19;4977700;28;20219;-87
2021/05/20 05:50:55;;;;;;;3.13;1.50;;;;;;;11.35;72.71;96067.03;4974286;28;20228;-87
2021/05/20 05:53:22;;;;;;;1.60;1.50;;;;;;;11.47;72.12;96064.88;4977543;28;20207;-88
2021/05/20 05:55:52;;;;;;;2.27;1.50;;;;;;;11.34;71.89;96075.75;4976468;28;20266;-88
2021/05/20 05:58:20;;;;;;;1.57;1.47;;;;;;;11.38;72.50;96075.22;4977363;28;20204;-86
2021/05/20 06:00:46;;;;;;;2.00;1.60;;;;;;;11.45;72.56;96075.34;4977160;28;20216;-85
2021/05/20 06:03:13;;;;;;;1.60;1.50;;;;;;;11.47;71.65;96081.13;4976908;28;20226;-86
2021/05/20 06:05:44;;;;;;;1.40;1.30;;;;;;;11.47;70.97;96082.91;4977825;28;20214;-87
2021/05/20 06:08:10;;;;;;;4.73;1.80;;;;;;;11.51;71.34;96090.16;4977350;28;20211;-86
2021/05/20 06:10:38;;;;;;;2.83;1.60;;;;;;;11.46;71.21;96086.47;4977160;28;20212;-87
2021/05/20 06:13:08;;;;;;;2.10;1.53;;;;;;;11.40;71.61;96085.34;4976462;28;20196;-87
2021/05/20 06:15:34;;;;;;;2.37;1.50;;;;;;;11.42;72.27;96089.38;4976159;28;20200;-87
2021/05/20 06:18:09;;;;;;;1.50;1.40;;;;;;;11.44;71.67;96086.63;4974959;28;20291;-86
2021/05/20 06:20:37;;;;;;;1.80;1.70;;;;;;;11.46;72.18;96086.47;4967188;28;20219;-85
2021/05/20 06:23:11;;;;;;;3.60;1.70;;;;;;;11.54;72.80;96094.97;4976806;28;20311;-86
2021/05/20 06:25:40;;;;;;;2.90;1.70;;;;;;;11.53;71.73;96093.38;4970106;28;20259;-85
2021/05/20 06:28:25;;;;;;;2.33;1.57;;;;;;;11.50;71.13;96083.38;4953919;29;20193;-85
2021/05/20 06:30:59;;;;;;;1.40;1.30;;;;;;;11.66;71.56;96095.38;4950700;29;20244;-85
2021/05/20 06:33:37;;;;;;;3.83;1.60;;;;;;;11.70;72.00;96094.88;4944391;29;20210;-85
2021/05/20 06:36:07;;;;;;;2.13;1.30;;;;;;;11.64;71.76;96087.81;4938171;29;20201;-86
2021/05/20 06:38:35;;;;;;;2.37;1.30;;;;;;;11.71;71.62;96091.31;4940675;29;20236;-86
2021/05/20 06:41:16;;;;;;;1.60;1.50;;;;;;;11.79;71.86;96094.84;4937980;29;20225;-84
2021/05/20 06:43:43;;;;;;;1.73;1.43;;;;;;;11.74;71.55;96092.72;4953708;29;20231;-87
2021/05/20 06:46:53;;;;;;;3.17;1.80;;;;;;;11.74;71.67;96092.72;4957649;29;20205;-89
2021/05/20 06:49:36;;;;;;;2.40;1.43;;;;;;;11.84;70.78;96098.50;4893423;29;20208;-86
2021/05/20 06:52:22;;;;;;;1.30;1.20;;;;;;;11.83;69.83;96096.09;4889788;29;20287;-87
2021/05/20 06:54:48;;;;;;;1.30;1.20;;;;;;;11.75;69.02;96107.22;4955933;29;20205;-86
2021/05/20 07:00:37;;;;;;;2.80;1.50;;;;;;;11.80;69.90;96107.56;4928455;29;20804;-87
2021/05/20 07:03:42;;;;;;;3.03;1.30;;;;;;;12.07;69.43;96106.25;4892854;29;20753;-83
2021/05/20 07:06:19;;;;;;;2.50;1.47;;;;;;;12.12;69.01;96103.97;4949119;29;20691;-87
2021/05/20 07:08:45;;;;;;;1.40;1.20;;;;;;;12.02;68.58;96118.88;4949067;29;20224;-86
2021/05/20 07:11:42;;;;;;;3.50;1.40;;;;;;;11.87;67.63;96111.09;4953142;28;20221;-86
2021/05/20 07:20:31;;;;;;;;;;;;;;;;;;;;;
2021/05/20 07:26:49;;;;;;;1.30;1.20;;;;;;;12.31;65.71;96105.28;4925837;29;20225;-86
2021/05/20 07:29:42;;;;;;;1.30;1.20;;;;;;;12.20;64.95;96105.69;4950284;29;20292;-84
2021/05/20 07:42:02;;;;;;;1.33;1.23;;;;;;;12.81;63.68;96096.88;4902686;29;20230;-85
2021/05/20 07:44:28;;;;;;;1.07;0.97;;;;;;;12.82;64.02;96089.94;4977260;28;20668;-85
2021/05/20 07:47:01;;;;;;;1.13;1.03;;;;;;;12.79;63.27;96094.47;4975111;28;20594;-85
2021/05/20 07:49:31;;;;;;;3.40;1.17;;;;;;;12.66;63.88;96098.66;4970146;28;20228;-87
2021/05/20 07:52:08;;;;;;;2.60;1.20;;;;;;;12.63;65.07;96104.19;4954661;29;20256;-84
2021/05/20 07:54:34;;;;;;;1.83;1.10;;;;;;;12.35;65.54;96111.69;4956367;29;20208;-87
2021/05/20 07:57:00;;;;;;;1.17;1.07;;;;;;;12.14;68.27;96121.84;4954025;29;20631;-86
2021/05/20 07:59:33;;;;;;;1.63;1.00;;;;;;;12.02;67.28;96114.53;4954260;29;20200;-87
2021/05/20 08:02:02;;;;;;;2.00;0.80;;;;;;;11.96;66.33;96116.97;4952901;28;20278;-88
2021/05/20 08:04:47;;;;;;;0.90;0.90;;;;;;;11.95;67.01;96113.59;4953480;29;20645;-87
2021/05/20 08:07:32;;;;;;;1.80;0.80;;;;;;;12.00;67.88;96111.31;4953815;29;20200;-86
2021/05/20 08:10:48;;;;;;;2.20;1.27;;;;;;;12.17;69.03;96111.19;4953472;29;20196;-83
2021/05/20 08:13:16;;;;;;;0.90;0.90;;;;;;;12.37;69.17;96107.94;4953281;29;20220;-85
2021/05/20 08:15:42;;;;;;;1.27;1.10;;;;;;;12.53;68.57;96108.78;4953601;29;20209;-84
2021/05/20 08:18:16;;;;;;;2.03;1.20;;;;;;;12.96;69.04;96112.41;4955023;29;20205;-86
2021/05/20 08:21:04;;;;;;;1.67;1.23;;;;;;;13.28;68.85;96106.88;4956122;29;20288;-89
2021/05/20 08:26:57;;;;;;;1.73;1.50;;;;;;;13.57;65.32;96108.63;4921234;29;20235;-87
2021/05/20 08:29:39;;;;;;;0.97;0.90;;;;;;;13.16;65.40;96100.56;4955248;29;20212;-85
2021/05/20 08:32:14;;;;;;;1.63;1.10;;;;;;;12.76;66.02;96123.25;4944083;28;20231;-88
2021/05/20 08:38:35;;;;;;;0.90;0.90;;;;;;;12.53;71.74;96111.34;4935781;29;20233;-87
2021/05/20 08:41:59;;;;;;;1.03;0.93;;;;;;;12.50;72.66;96103.97;4894955;29;20234;-86
2021/05/20 08:53:48;;;;;;;0.87;0.87;;;;;;;14.04;66.29;96097.78;4905443;28;20201;-88
2021/05/20 08:56:51;;;;;;;;;;;;;;;;;;;;;
2021/05/20 08:59:21;;;;;;;1.63;1.10;;;;;;;13.71;66.68;96094.84;4934722;29;20217;-88
2021/05/20 09:02:02;;;;;;;1.63;1.30;;;;;;;14.08;63.46;96096.41;4931489;29;20386;-88
2021/05/20 09:05:16;;;;;;;1.30;1.10;;;;;;;14.53;62.11;96099.59;4935717;29;20225;-90
2021/05/20 09:19:55;;;;;;;1.80;0.70;;;;;;;12.82;62.48;96095.91;4937457;29;20201;-88
2021/05/20 09:22:40;;;;;;;;;;;;;;;;;;;;;
2021/05/20 09:25:12;;;;;;;1.10;1.00;;;;;;;13.29;62.75;96105.88;4940619;29;20207;-84
2021/05/20 09:28:39;;;;;;;1.10;0.90;;;;;;;13.65;61.18;96097.38;4957530;28;20216;-87
2021/05/20 09:31:22;;;;;;;0.90;0.80;;;;;;;14.18;60.00;96085.75;4956864;28;20229;-86
2021/05/20 09:33:52;;;;;;;0.90;0.90;;;;;;;14.54;57.57;96087.44;4949836;28;20616;-84
2021/05/20 09:36:46;;;;;;;0.93;0.93;;;;;;;14.93;55.92;96072.16;4962845;28;20188;-87
2021/05/20 09:39:19;;;;;;;0.80;0.80;;;;;;;15.13;56.53;96074.84;4976725;28;20204;-85
2021/05/20 09:41:46;;;;;;;0.80;0.80;;;;;;;15.46;56.39;96067.19;4954771;28;20232;-84
2021/05/20 09:44:32;;;;;;;0.80;0.80;;;;;;;15.67;54.08;96066.28;4958303;29;20228;-85
2021/05/20 09:47:00;;;;;;;1.00;0.90;;;;;;;15.69;54.92;96066.88;4938467;29;20276;-88
2021/05/20 09:49:32;;;;;;;1.83;0.80;;;;;;;15.82;54.63;96066.91;4943645;28;20248;-84
2021/05/20 09:52:23;;;;;;;1.00;1.00;;;;;;;15.94;52.89;96067.94;4959620;28;20246;-87
2021/05/20 09:54:49;;;;;;;0.87;0.80;;;;;;;16.10;53.32;96064.94;4959578;28;20216;-86
2021/05/20 09:57:27;;;;;;;0.77;0.77;;;;;;;16.21;51.20;96059.16;4965382;28;20859;-85
2021/05/20 10:00:08;;;;;;;0.77;0.77;;;;;;;16.52;51.47;96063.75;4965876;28;20198;-86
2021/05/20 10:02:50;;;;;;;0.80;0.80;;;;;;;16.52;50.09;96057.75;4964758;28;20553;-88
2021/05/20 10:05:24;;;;;;;1.00;0.90;;;;;;;16.34;50.19;96065.38;4967849;28;20207;-84
2021/05/20 10:07:57;;;;;;;0.70;0.70;;;;;;;16.09;50.92;96060.75;4959399;28;20269;-87
2021/05/20 10:10:23;;;;;;;2.20;0.80;;;;;;;15.26;53.32;96077.47;4958533;29;20208;-85
2021/05/20 10:12:50;;;;;;;0.70;0.70;;;;;;;14.73;57.33;96077.22;4960739;28;20323;-86
2021/05/20 10:15:22;;;;;;;2.00;0.97;;;;;;;14.26;60.09;96088.19;4964347;28;20288;-86
2021/05/20 10:17:49;;;;;;;0.80;0.80;;;;;;;14.28;60.05;96088.78;4977180;28;20251;-88
2021/05/20 10:20:28;;;;;;;3.30;1.03;;;;;;;14.38;62.15;96089.28;4960861;28;20604;-85
2021/05/20 10:23:06;;;;;;;1.57;0.90;;;;;;;14.48;61.72;96082.00;4975778;28;20278;-89
2021/05/20 10:25:41;;;;;;;1.80;0.70;;;;;;;14.87;61.38;96083.25;4975238;28;20212;-89
2021/05/20 10:28:10;;;;;;;0.70;0.70;;;;;;;14.68;59.35;96087.34;4974931;28;20227;-84
2021/05/20 10:30:50;;;;;;;0.60;0.60;;;;;;;14.54;59.34;96077.88;4970394;28;20216;-86
2021/05/20 10:33:31;;;;;;;1.23;0.80;;;;;;;15.01;57.65;96077.16;4977671;28;20227;-85
2021/05/20 10:39:49;;;;;;;0.70;0.70;;;;;;;15.83;52.80;96074.50;4929595;28;20267;-89
2021/05/20 10:42:57;;;;;;;0.67;0.63;;;;;;;16.06;50.82;96068.94;4971003;28;20267;-89
2021/05/20 10:45:53;;;;;;;0.60;0.60;;;;;;;16.13;50.38;96064.56;4964445;28;20208;-88
2021/05/20 10:48:26;;;;;;;0.60;0.60;;;;;;;16.04;48.99;96070.13;4960396;28;20212;-88
2021/05/20 10:51:33;;;;;;;;;;;;;;;;;;;;;
2021/05/20 10:54:10;;;;;;;0.53;0.53;;;;;;;16.33;49.18;96061.97;4956752;28;20203;-86
2021/05/20 10:56:57;;;;;;;0.60;0.60;;;;;;;16.55;48.29;96063.31;4956190;29;20204;-85
2021/05/20 10:59:49;;;;;;;2.70;0.93;;;;;;;16.22;48.04;96057.34;4963829;28;20204;-86
2021/05/20 11:02:50;;;;;;;0.80;0.60;;;;;;;16.54;48.97;96053.16;4968589;28;20244;-85
2021/05/20 11:06:06;;;;;;;0.60;0.60;;;;;;;16.37;48.42;96046.75;4951633;28;20201;-85
2021/05/20 11:09:00;;;;;;;0.50;0.50;;;;;;;15.69;49.41;96066.88;4921954;29;20213;-84
2021/05/20 11:22:12;;;;;;;0.50;0.50;;;;;;;14.00;57.13;96065.47;4963418;23;20236;-87
2021/05/20 11:25:13;;;;;;;0.50;0.50;;;;;;;13.99;57.61;96073.41;4956077;29;20295;-88
2021/05/20 11:28:06;;;;;;;0.80;0.57;;;;;;;14.42;57.31;96058.66;4957187;29;20700;-89
2021/05/20 11:37:21;;;;;;;;;;;;;;;;;;;;;
2021/05/20 11:39:50;;;;;;;0.80;0.70;;;;;;;15.08;57.43;96059.03;4954076;28;20196;-88
2021/05/20 11:42:32;;;;;;;;;;;;;;;;;;;;;
2021/05/20 11:45:08;;;;;;;3.23;0.90;;;;;;;14.71;58.24;96058.44;4951421;29;20299;-88
2021/05/20 11:47:40;;;;;;;0.57;0.57;;;;;;;14.64;57.98;96060.19;4957563;29;20224;-87
2021/05/20 11:52:50;;;;;;;0.87;0.87;;;;;;;15.06;56.33;96053.25;4981850;23;20237;-88
2021/05/20 11:55:20;;;;;;;0.73;0.50;;;;;;;15.47;52.74;96051.41;4956261;28;20189;-88
2021/05/20 11:58:00;;;;;;;0.70;0.70;;;;;;;15.47;52.60;96048.03;4956193;29;20268;-88
2021/05/20 12:00:26;;;;;;;0.77;0.53;;;;;;;15.70;53.72;96045.13;4960398;28;20192;-87
2021/05/20 12:02:59;;;;;;;0.60;0.60;;;;;;;15.83;52.56;96052.91;4963794;28;20216;-88
2021/05/20 12:05:26;;;;;;;2.00;0.60;;;;;;;15.66;52.22;96051.69;4959254;28;20199;-89
2021/05/20 12:08:06;;;;;;;0.70;0.70;;;;;;;15.56;53.39;96039.09;4972196;28;20251;-88
2021/05/20 12:11:04;;;;;;;0.80;0.70;;;;;;;15.45;52.60;96035.22;4943185;28;20307;-89
2021/05/20 12:13:50;;;;;;;0.70;0.70;;;;;;;15.74;53.35;96028.16;4977765;28;20200;-89
2021/05/20 12:17:24;;;;;;;1.03;0.73;;;;;;;15.69;52.51;96033.13;4968657;28;20208;-89
2021/05/20 12:20:06;;;;;;;0.80;0.60;;;;;;;15.32;54.41;96026.63;4957511;29;20208;-89
2021/05/20 12:22:39;;;;;;;0.60;0.50;;;;;;;14.93;55.76;96028.06;4975905;28;20216;-89
2021/05/20 12:25:14;;;;;;;0.80;0.60;;;;;;;14.97;56.17;96037.06;4977780;28;20243;-88
2021/05/20 12:27:50;;;;;;;0.50;0.50;;;;;;;15.06;53.51;96035.09;4959520;28;20216;-88
2021/05/20 12:30:36;;;;;;;0.40;0.40;;;;;;;15.02;50.01;96034.66;4958635;29;20228;-86
2021/05/20 12:33:07;;;;;;;0.40;0.40;;;;;;;14.99;49.73;96032.50;4937268;28;20237;-88
2021/05/20 12:35:54;;;;;;;0.40;0.40;;;;;;;14.99;50.21;96022.13;4947680;28;20223;-87
2021/05/20 12:38:45;;;;;;;1.40;0.50;;;;;;;15.05;49.87;96029.09;4977289;28;20215;-86
2021/05/20 12:41:23;;;;;;;0.50;0.50;;;;;;;15.18;51.02;96018.81;4968023;28;20253;-84
2021/05/20 12:43:53;;;;;;;0.50;0.50;;;;;;;15.67;50.08;96027.34;4956473;29;20616;-85
2021/05/20 12:46:55;;;;;;;0.60;0.60;;;;;;;16.06;49.52;96016.19;4967570;28;20458;-89
2021/05/20 12:49:37;;;;;;;1.70;0.70;;;;;;;16.37;50.00;96016.38;4974454;28;20295;-87
2021/05/20 12:52:13;;;;;;;1.63;0.70;;;;;;;16.72;51.27;96018.75;4966333;28;20232;-87
2021/05/20 12:55:07;;;;;;;2.50;0.70;;;;;;;17.16;50.59;96018.00;4966417;28;20212;-85
2021/05/20 13:01:10;;;;;;;2.00;0.70;;;;;;;17.61;47.21;96006.56;4935778;28;20272;-87
2021/05/20 13:07:08;;;;;;;1.02;0.70;;;;;;;17.05;47.18;95997.84;4984592;28;20218;-87
2021/05/20 13:09:59;;;;;;;0.95;0.70;;;;;;;16.75;47.26;95994.91;4969340;28;20250;-87
2021/05/20 13:12:40;;;;;;;1.85;0.70;;;;;;;16.56;47.28;95992.13;4919327;29;20228;-85
2021/05/20 13:15:11;;;;;;;1.55;0.80;;;;;;;16.44;48.12;95987.78;4963522;29;20217;-87
2021/05/20 13:17:54;;;;;;;1.33;0.65;;;;;;;16.39;48.41;95997.97;4974304;28;20200;-85
2021/05/20 13:23:28;;;;;;;0.85;0.70;;;;;;;16.10;49.43;95999.22;4960331;28;20252;-86
2021/05/20 13:25:54;;;;;;;0.70;0.70;;;;;;;16.05;49.00;95999.81;4975258;28;20192;-87
2021/05/20 13:28:21;;;;;;;0.82;0.80;;;;;;;15.94;47.54;96007.41;4980353;28;20635;-87
2021/05/20 13:30:53;;;;;;;1.83;0.80;;;;;;;15.96;48.67;96015.78;4959576;29;20315;-88
2021/05/20 13:33:26;;;;;;;0.87;0.80;;;;;;;15.72;49.07;96007.59;4972089;28;20230;-89